Pagina principale
METAR-TAF:

METAR-TAF

Aeroporti :

Aeroporto di Gioia del Colle

Gioia del Colle, Italia

latitudine: 40-46N, longitudine: 016-56E, altezza: 345 m

Osservazione

Il bollettino è stato emesso 49 minuti fa, alle 16:55 UTC
Vento 10 kt da nord
Temperature 17°C
Umidità 48%
Pressione 1013 hPa
Visibilità 10 km o più
nessuna nube inferiore a 1500 m e nessun cumulonembo

METAR: LIBV 311655Z 35010KT CAVOK 17/06 Q1013 RMK FEW FEW100 VIS MIN 9999 WIND THR32 02009KT WIND THR14 36008KT BLU

Ora: 19:44 (17:44 UTC)

Previsione

Il bollettino è stato emesso 44 minuti fa, alle 17:00 UTC
Previsione valida dal 31 alle 18 UTC al 01 alle 03 UTC
Vento 8 kt da nord/nord-ovest
Visibilità 10 km o più
Nubi sparse ad un'altezza di 4000 ft

TAF: LIBV 311700Z 3118/0103 33008KT 9999 SCT040

Osservazioni e previsioni meteorologiche di più di 4000 aeroporti (messaggi METAR e TAF).

Le stazioni disponibili sono rappresentate dai dischi gialli e rossi sulla carta.

Puntare il mouse per vedere il nome della stazione.

Clicca sopra per visualizzare le osservazioni e previsioni meteorologiche.

Per cambiare la mappa : fare clic sui pulsanti verdi con una croce nera per ingrandire, il pulsante verde con un trattino per diminuire, o sulla freccia verde per le mappe adiacenti.


METAR-TAF: